createdAt,value
2019-02-04T00:03:07.251Z,9.83
2019-02-04T00:08:22.606Z,12.07
2019-02-04T00:13:38.289Z,8.53
2019-02-04T00:18:53.981Z,9.63
2019-02-04T00:24:09.357Z,9.70
2019-02-04T00:29:24.921Z,11.00
2019-02-04T00:34:40.490Z,7.90
2019-02-04T00:39:56.602Z,10.47
2019-02-04T00:45:12.541Z,8.77
2019-02-04T00:50:27.910Z,8.60
2019-02-04T00:55:43.760Z,9.93
2019-02-04T01:01:00.187Z,11.27
2019-02-04T01:06:16.744Z,10.87
2019-02-04T01:11:32.718Z,10.60
2019-02-04T01:16:48.082Z,9.47
2019-02-04T01:22:03.923Z,13.23
2019-02-04T01:27:19.852Z,11.63
2019-02-04T01:32:35.578Z,15.27
2019-02-04T01:37:51.596Z,14.23
2019-02-04T01:43:07.049Z,13.73
2019-02-04T01:48:23.036Z,18.67
2019-02-04T01:53:39.197Z,15.03
2019-02-04T01:58:54.387Z,18.97
2019-02-04T02:04:10.377Z,15.63
2019-02-04T02:09:26.237Z,18.30
2019-02-04T02:14:42.177Z,18.13
2019-02-04T02:19:57.658Z,20.97
2019-02-04T02:25:13.099Z,19.07
2019-02-04T02:30:28.348Z,17.33
2019-02-04T02:35:44.267Z,17.30
2019-02-04T02:41:00.420Z,17.13
2019-02-04T02:46:15.738Z,19.20
2019-02-04T02:51:32.261Z,17.43
2019-02-04T02:56:47.448Z,17.83
2019-02-04T03:02:03.695Z,18.47
2019-02-04T03:07:19.099Z,15.77
2019-02-04T03:12:34.405Z,18.13
2019-02-04T03:17:52.595Z,17.33
2019-02-04T03:23:09.018Z,17.77
2019-02-04T03:28:24.281Z,17.17
2019-02-04T03:33:40.083Z,20.40
2019-02-04T03:38:55.693Z,20.40
2019-02-04T03:44:14.497Z,24.10
2019-02-04T03:49:29.706Z,23.40
2019-02-04T03:54:45.594Z,24.87
2019-02-04T04:00:01.744Z,30.43
2019-02-04T04:05:17.568Z,22.53
2019-02-04T04:10:33.578Z,26.87
2019-02-04T04:15:49.317Z,23.27
2019-02-04T04:21:04.592Z,20.67
2019-02-04T04:26:20.250Z,21.87
2019-02-04T04:31:35.777Z,23.27
2019-02-04T04:36:51.505Z,20.83
2019-02-04T04:42:07.173Z,32.63
2019-02-04T04:47:23.473Z,18.93
2019-02-04T04:52:39.220Z,18.83
2019-02-04T04:57:57.218Z,17.03
2019-02-04T05:03:13.941Z,16.43
2019-02-04T05:08:29.525Z,17.60
2019-02-04T05:13:45.144Z,18.40
2019-02-04T05:19:00.537Z,20.87
2019-02-04T05:24:15.961Z,16.27
2019-02-04T05:29:31.589Z,15.77
2019-02-04T05:34:47.240Z,15.90
2019-02-04T05:40:03.521Z,15.97
2019-02-04T05:45:19.443Z,16.13
2019-02-04T05:50:34.705Z,17.33
2019-02-04T05:55:51.346Z,13.33
2019-02-04T06:01:07.353Z,13.77
2019-02-04T06:06:22.981Z,14.40
2019-02-04T06:11:38.797Z,11.60
2019-02-04T06:16:54.622Z,11.87
2019-02-04T06:22:10.183Z,10.60
2019-02-04T06:27:25.826Z,11.10
2019-02-04T06:32:41.690Z,9.03
2019-02-04T06:37:57.197Z,13.13
2019-02-04T06:43:12.721Z,13.20
2019-02-04T06:48:28.409Z,8.57
2019-02-04T06:53:43.745Z,8.70
2019-02-04T06:58:59.108Z,9.50
2019-02-04T07:04:15.473Z,7.90
2019-02-04T07:09:30.752Z,9.03
2019-02-04T07:14:46.864Z,8.00
2019-02-04T07:20:03.084Z,8.07
2019-02-04T07:25:19.641Z,9.33
2019-02-04T07:30:34.880Z,7.10
2019-02-04T07:35:50.361Z,9.30
2019-02-04T07:41:06.177Z,8.60
2019-02-04T07:46:21.472Z,9.43
2019-02-04T07:51:37.833Z,7.40
2019-02-04T07:56:53.297Z,6.33
2019-02-04T08:02:09.615Z,9.40
2019-02-04T08:07:25.009Z,6.57
2019-02-04T08:12:40.629Z,7.70
2019-02-04T08:17:56.428Z,5.63
2019-02-04T08:23:12.642Z,8.57
2019-02-04T08:28:28.609Z,6.60
2019-02-04T08:33:44.497Z,7.20
2019-02-04T08:38:59.982Z,6.00
2019-02-04T08:44:15.572Z,6.37
2019-02-04T08:49:32.281Z,6.27
2019-02-04T08:54:47.612Z,6.83
2019-02-04T09:00:03.397Z,7.77
2019-02-04T09:05:18.910Z,6.73
2019-02-04T09:10:34.545Z,6.77
2019-02-04T09:15:50.065Z,6.17
2019-02-04T09:21:06.337Z,5.93
2019-02-04T09:26:23.865Z,9.57
2019-02-04T09:31:39.688Z,7.50
2019-02-04T09:36:55.185Z,8.40
2019-02-04T09:42:11.293Z,6.97
2019-02-04T09:47:26.957Z,6.87
2019-02-04T09:52:42.413Z,5.93
2019-02-04T09:58:00.945Z,6.03
2019-02-04T10:03:16.579Z,8.57
2019-02-04T10:08:32.973Z,7.03
2019-02-04T10:13:49.005Z,6.50
2019-02-04T10:19:04.573Z,5.10
2019-02-04T10:24:19.948Z,7.63
2019-02-04T10:29:36.189Z,6.40
2019-02-04T10:34:53.953Z,5.20
2019-02-04T10:40:10.203Z,9.20
2019-02-04T10:45:26.258Z,4.53
2019-02-04T10:50:46.188Z,5.87
2019-02-04T10:55:59.405Z,7.00
2019-02-04T11:01:16.045Z,8.03
2019-02-04T11:06:32.181Z,5.27
2019-02-04T11:11:48.457Z,6.33
2019-02-04T11:17:03.910Z,5.90
2019-02-04T11:22:19.562Z,5.63
2019-02-04T11:27:35.737Z,8.07
2019-02-04T11:32:51.418Z,5.97
2019-02-04T11:38:06.801Z,6.33
2019-02-04T11:43:22.426Z,6.17
2019-02-04T11:48:38.250Z,5.87
2019-02-04T11:53:54.038Z,5.53
2019-02-04T11:59:09.617Z,5.93
2019-02-04T12:04:25.390Z,5.07
2019-02-04T12:09:41.077Z,4.50
2019-02-04T12:14:57.062Z,6.07
2019-02-04T12:20:12.671Z,4.37
2019-02-04T12:25:28.418Z,4.97
2019-02-04T12:30:45.136Z,4.73
2019-02-04T12:36:02.172Z,4.20
2019-02-04T12:41:17.642Z,3.57
2019-02-04T12:46:32.953Z,3.87
2019-02-04T12:51:48.783Z,3.23
2019-02-04T12:57:05.086Z,5.23
2019-02-04T13:02:20.825Z,6.43
2019-02-04T13:07:24.257Z,5.43
2019-02-04T13:12:47.291Z,3.53
2019-02-04T13:18:10.769Z,3.93
2019-02-04T13:23:35.481Z,5.10
2019-02-04T13:28:58.485Z,8.83
2019-02-04T13:34:21.489Z,4.23
2019-02-04T13:39:44.494Z,3.70
2019-02-04T13:45:28.232Z,5.70
2019-02-04T13:50:50.997Z,4.50
2019-02-04T13:56:06.221Z,4.93
2019-02-04T14:01:22.280Z,4.30
2019-02-04T14:06:37.825Z,5.63
2019-02-04T14:11:53.410Z,3.10
2019-02-04T14:17:10.206Z,4.03
2019-02-04T14:22:25.958Z,4.13
2019-02-04T14:27:41.893Z,2.97
2019-02-04T14:32:57.584Z,3.50
2019-02-04T14:38:13.398Z,2.87
2019-02-04T14:43:28.743Z,5.50
2019-02-04T14:48:44.465Z,4.07
2019-02-04T14:53:59.928Z,3.63
2019-02-04T14:59:16.096Z,2.57
2019-02-04T15:04:33.269Z,5.13
2019-02-04T15:09:49.634Z,4.50
2019-02-04T15:15:05.449Z,3.53
2019-02-04T15:20:21.087Z,3.53
2019-02-04T15:25:36.702Z,4.00
2019-02-04T15:30:52.561Z,3.40
2019-02-04T15:36:09.198Z,2.50
2019-02-04T15:41:24.866Z,4.87
2019-02-04T15:46:40.130Z,2.63
2019-02-04T15:51:55.733Z,3.93
2019-02-04T15:57:11.113Z,2.03
2019-02-04T16:02:27.161Z,2.07
2019-02-04T16:07:42.771Z,2.27
2019-02-04T16:12:58.411Z,4.27
2019-02-04T16:18:13.674Z,3.30
2019-02-04T16:23:29.708Z,2.50
2019-02-04T16:28:46.677Z,1.30
2019-02-04T16:45:10.108Z,2.80
2019-02-04T16:50:25.800Z,2.70
2019-02-04T16:55:41.226Z,2.70
2019-02-04T17:00:57.945Z,3.23
2019-02-04T17:06:13.730Z,3.83
2019-02-04T17:11:29.448Z,4.50
2019-02-04T17:16:45.205Z,1.77
2019-02-04T17:22:00.529Z,3.63
2019-02-04T17:27:16.087Z,2.10
2019-02-04T17:32:32.282Z,2.37
2019-02-04T17:37:48.042Z,4.43
2019-02-04T17:43:03.837Z,2.53
2019-02-04T17:48:19.810Z,1.93
2019-02-04T17:53:37.295Z,1.83
2019-02-04T17:58:53.522Z,4.17
2019-02-04T18:04:09.902Z,2.70
2019-02-04T18:09:25.596Z,2.70
2019-02-04T18:14:42.148Z,3.17
2019-02-04T18:19:59.011Z,1.37
2019-02-04T18:25:14.534Z,2.57
2019-02-04T18:30:31.329Z,1.87
2019-02-04T18:35:47.684Z,2.17
2019-02-04T18:41:03.208Z,1.27
2019-02-04T18:46:19.052Z,2.47
2019-02-04T18:51:34.993Z,1.27
2019-02-04T18:56:50.388Z,1.70
2019-02-04T19:02:05.712Z,2.50
2019-02-04T19:07:21.641Z,2.97
2019-02-04T19:12:37.236Z,3.70
2019-02-04T19:17:53.388Z,2.00
2019-02-04T19:23:09.146Z,2.17
2019-02-04T19:28:25.486Z,1.70
2019-02-04T19:33:41.012Z,2.07
2019-02-04T19:38:57.183Z,2.40
2019-02-04T19:44:13.236Z,1.20
2019-02-04T19:49:29.634Z,1.60
2019-02-04T19:54:45.233Z,3.63
2019-02-04T20:00:00.745Z,3.07
2019-02-04T20:05:16.362Z,1.60
2019-02-04T20:10:34.697Z,2.57
2019-02-04T20:15:50.525Z,2.33
2019-02-04T20:21:06.597Z,1.83
2019-02-04T20:26:22.736Z,3.90
2019-02-04T20:31:39.813Z,2.33
2019-02-04T20:36:55.789Z,3.67
2019-02-04T20:42:12.769Z,1.27
2019-02-04T20:47:28.689Z,2.30
2019-02-04T20:52:44.871Z,2.33
2019-02-04T20:58:02.535Z,1.53
2019-02-04T21:03:21.369Z,3.73
2019-02-04T21:08:38.464Z,3.77
2019-02-04T21:13:53.897Z,7.77
2019-02-04T21:19:09.322Z,3.40
2019-02-04T21:24:24.680Z,2.90
2019-02-04T21:29:39.953Z,4.57
2019-02-04T21:34:55.872Z,2.90
2019-02-04T21:40:11.281Z,2.60
2019-02-04T21:45:26.805Z,3.40
2019-02-04T21:50:41.999Z,3.87
2019-02-04T21:55:57.513Z,3.23
2019-02-04T22:01:13.025Z,3.17
2019-02-04T22:06:29.201Z,3.40
2019-02-04T22:11:44.773Z,3.97
2019-02-04T22:17:01.246Z,3.53
2019-02-04T22:22:16.945Z,2.93
2019-02-04T22:27:32.492Z,3.20
2019-02-04T22:32:48.313Z,6.83
2019-02-04T22:38:04.604Z,4.37
2019-02-04T22:43:20.805Z,2.17
2019-02-04T22:48:36.253Z,3.40
2019-02-04T22:53:51.726Z,3.70
2019-02-04T22:59:07.013Z,5.43
2019-02-04T23:04:23.095Z,4.30
2019-02-04T23:09:39.166Z,3.63
2019-02-04T23:14:55.240Z,2.90
2019-02-04T23:20:10.669Z,6.23
2019-02-04T23:25:26.387Z,6.27
2019-02-04T23:30:41.920Z,3.50
2019-02-04T23:35:57.527Z,3.33
2019-02-04T23:41:13.530Z,3.97
2019-02-04T23:46:28.997Z,4.80
2019-02-04T23:51:47.378Z,4.33
2019-02-04T23:57:02.313Z,3.60
